Time;durP1;ratioP1;P1;durP2;ratioP2;P2;SDS_P1;SDS_P2;PMS_P1;PMS_P2;Temp;Humidity;BMP_temperature;BMP_pressure;BME280_temperature;BME280_humidity;BME280_pressure;Samples;Min_cycle;Max_cycle;Signal;HPM_P1;HPM_P2
2021/10/19 00:01:18;;;;;;;13.02;7.00;;;11.10;99.90;;;;;;5025500;28;20021;-73
2021/10/19 00:03:43;;;;;;;10.77;5.90;;;11.10;99.90;;;;;;5043549;28;20029;-73
2021/10/19 00:06:10;;;;;;;16.52;4.97;;;11.10;99.90;;;;;;5043147;28;20029;-73
2021/10/19 00:08:36;;;;;;;12.30;6.15;;;11.20;99.90;;;;;;5025752;28;20041;-72
2021/10/19 00:11:02;;;;;;;12.18;5.78;;;11.10;99.90;;;;;;5043474;28;20022;-73
2021/10/19 00:13:28;;;;;;;15.23;5.68;;;11.20;99.90;;;;;;5024704;28;20031;-73
2021/10/19 00:15:54;;;;;;;16.63;6.18;;;11.20;99.90;;;;;;5043779;28;20049;-72
2021/10/19 00:18:20;;;;;;;11.05;5.50;;;11.20;99.90;;;;;;5026130;28;20025;-74
2021/10/19 00:20:47;;;;;;;13.77;6.43;;;11.20;99.90;;;;;;5025552;28;20030;-74
2021/10/19 00:23:12;;;;;;;9.95;4.95;;;11.20;99.90;;;;;;5044559;28;20037;-73
2021/10/19 00:25:38;;;;;;;12.38;5.60;;;11.20;99.90;;;;;;5047306;28;20029;-74
2021/10/19 00:28:04;;;;;;;14.48;5.82;;;11.20;99.90;;;;;;5028797;28;20040;-74
2021/10/19 00:30:31;;;;;;;10.68;5.28;;;11.30;99.90;;;;;;5047116;28;20044;-74
2021/10/19 00:32:56;;;;;;;12.10;5.82;;;11.30;99.90;;;;;;5047116;28;20030;-73
2021/10/19 00:35:22;;;;;;;15.18;5.95;;;11.20;99.90;;;;;;5047105;28;20030;-75
2021/10/19 00:37:49;;;;;;;12.85;5.63;;;11.20;99.90;;;;;;5025431;28;20108;-74
2021/10/19 00:40:15;;;;;;;15.27;5.95;;;11.20;99.90;;;;;;5027397;28;20034;-73
2021/10/19 00:42:41;;;;;;;14.38;6.05;;;11.30;99.90;;;;;;5025071;28;20034;-73
2021/10/19 00:45:07;;;;;;;14.05;6.88;;;11.20;99.90;;;;;;5027141;28;20061;-73
2021/10/19 00:47:34;;;;;;;12.57;5.47;;;11.20;99.90;;;;;;5026986;28;20034;-73
2021/10/19 00:50:00;;;;;;;10.23;5.13;;;11.20;99.90;;;;;;5025350;28;20061;-73
2021/10/19 00:52:26;;;;;;;16.48;6.10;;;11.20;99.90;;;;;;5025533;28;20026;-73
2021/10/19 00:54:52;;;;;;;11.90;5.10;;;11.20;99.90;;;;;;5027082;28;20405;-74
2021/10/19 00:57:18;;;;;;;11.70;5.82;;;11.30;99.90;;;;;;5025982;28;20104;-74
2021/10/19 00:59:46;;;;;;;13.95;6.00;;;11.20;99.90;;;;;;5026840;28;20030;-73
2021/10/19 01:02:16;;;;;;;13.23;5.43;;;11.20;99.90;;;;;;5026512;28;20033;-73
2021/10/19 01:04:43;;;;;;;13.05;5.38;;;11.20;99.90;;;;;;5025300;28;20118;-75
2021/10/19 01:07:09;;;;;;;19.20;5.82;;;11.20;99.90;;;;;;5026652;28;20026;-73
2021/10/19 01:09:38;;;;;;;13.05;5.72;;;11.20;99.90;;;;;;5024730;28;20057;-73
2021/10/19 01:12:09;;;;;;;15.73;5.43;;;11.20;99.90;;;;;;5026175;28;20508;-74
2021/10/19 01:14:35;;;;;;;17.90;6.35;;;11.20;99.90;;;;;;5026347;28;20026;-73
2021/10/19 01:17:01;;;;;;;14.02;6.85;;;11.20;99.90;;;;;;5026161;28;20057;-74
2021/10/19 01:19:26;;;;;;;20.48;6.93;;;11.10;99.90;;;;;;5026426;28;20484;-73
2021/10/19 01:21:57;;;;;;;15.50;6.05;;;11.20;99.90;;;;;;5026165;28;20026;-73
2021/10/19 01:24:24;;;;;;;16.98;6.65;;;11.20;99.90;;;;;;5026137;28;20029;-73
2021/10/19 01:26:50;;;;;;;14.77;6.50;;;11.20;99.90;;;;;;5026108;28;20030;-76
2021/10/19 01:29:17;;;;;;;14.40;6.10;;;11.20;99.90;;;;;;5025970;28;20040;-76
2021/10/19 01:31:48;;;;;;;12.05;5.82;;;11.20;99.90;;;;;;5026042;28;20084;-75
2021/10/19 01:34:15;;;;;;;14.00;5.63;;;11.20;99.90;;;;;;5024105;28;20038;-74
2021/10/19 01:36:42;;;;;;;15.73;5.85;;;11.20;99.90;;;;;;5024666;28;20568;-74
2021/10/19 01:39:08;;;;;;;15.02;6.18;;;11.20;99.90;;;;;;5025627;28;20014;-75
2021/10/19 01:41:34;;;;;;;13.05;5.78;;;11.20;99.90;;;;;;5026101;28;20094;-75
2021/10/19 01:44:00;;;;;;;16.10;6.68;;;11.20;99.90;;;;;;5024535;28;20061;-74
2021/10/19 01:46:26;;;;;;;12.10;6.03;;;11.20;99.90;;;;;;5025829;28;20029;-75
2021/10/19 01:48:52;;;;;;;15.38;6.05;;;11.20;99.90;;;;;;5025635;28;20030;-74
2021/10/19 01:51:19;;;;;;;11.23;5.78;;;11.20;99.90;;;;;;5024735;28;20030;-75
2021/10/19 01:53:45;;;;;;;13.13;5.88;;;11.20;99.90;;;;;;5024203;28;20065;-74
2021/10/19 01:56:11;;;;;;;13.05;5.50;;;11.20;99.90;;;;;;5024660;28;20121;-74
2021/10/19 01:58:37;;;;;;;16.23;6.07;;;11.20;99.90;;;;;;5025555;28;20107;-75
2021/10/19 02:01:03;;;;;;;15.20;5.70;;;11.20;99.90;;;;;;5025029;28;20018;-74
2021/10/19 02:03:29;;;;;;;10.50;5.13;;;11.10;99.90;;;;;;5023738;28;20052;-74
2021/10/19 02:05:55;;;;;;;11.75;5.43;;;11.20;99.90;;;;;;5024255;28;20097;-75
2021/10/19 02:08:21;;;;;;;12.05;5.40;;;11.10;99.90;;;;;;5024648;28;20042;-75
2021/10/19 02:10:47;;;;;;;13.88;5.53;;;11.10;99.90;;;;;;5025897;28;20458;-75
2021/10/19 02:13:13;;;;;;;15.05;6.47;;;11.10;99.90;;;;;;5025671;28;20050;-75
2021/10/19 02:15:39;;;;;;;11.63;5.32;;;11.10;99.90;;;;;;5024957;28;20077;-75
2021/10/19 02:18:06;;;;;;;14.70;5.43;;;11.10;99.90;;;;;;5025104;28;20057;-74
2021/10/19 02:20:37;;;;;;;13.32;5.75;;;11.10;99.90;;;;;;5024081;28;20497;-75
2021/10/19 02:23:03;;;;;;;14.32;6.40;;;11.10;99.90;;;;;;5024736;28;20029;-75
2021/10/19 02:25:28;;;;;;;21.88;7.28;;;11.10;99.90;;;;;;5025145;28;20033;-75
2021/10/19 02:27:55;;;;;;;16.73;6.45;;;11.10;99.90;;;;;;5024526;28;20037;-75
2021/10/19 02:30:22;;;;;;;22.45;6.65;;;11.10;99.90;;;;;;5023558;28;20033;-74
2021/10/19 02:32:48;;;;;;;10.63;5.90;;;11.10;99.90;;;;;;5025308;28;20038;-75
2021/10/19 02:35:17;;;;;;;15.90;5.88;;;11.10;99.90;;;;;;5023707;28;20050;-74
2021/10/19 02:37:44;;;;;;;19.63;7.00;;;11.10;99.90;;;;;;5022816;28;20077;-75
2021/10/19 02:40:12;;;;;;;14.50;6.30;;;11.10;99.90;;;;;;5024856;28;20030;-73
2021/10/19 02:42:39;;;;;;;13.35;6.65;;;11.10;99.90;;;;;;5024606;28;20037;-75
2021/10/19 02:45:06;;;;;;;13.40;6.32;;;11.10;99.90;;;;;;5024135;28;20034;-75
2021/10/19 02:47:32;;;;;;;23.98;7.28;;;11.10;99.90;;;;;;5024506;28;20056;-74
2021/10/19 02:49:58;;;;;;;12.13;5.53;;;11.10;99.90;;;;;;5024539;28;20089;-76
2021/10/19 02:52:23;;;;;;;16.67;6.65;;;11.10;99.90;;;;;;5024270;28;20037;-75
2021/10/19 02:54:51;;;;;;;16.35;6.18;;;11.10;99.90;;;;;;5024819;28;20038;-74
2021/10/19 02:57:19;;;;;;;16.60;7.15;;;11.10;99.90;;;;;;5024706;28;20445;-75
2021/10/19 02:59:51;;;;;;;14.02;6.40;;;11.10;99.90;;;;;;5024873;28;20470;-75
2021/10/19 03:02:17;;;;;;;13.88;6.10;;;11.10;99.90;;;;;;5025002;28;20022;-76
2021/10/19 03:04:42;;;;;;;13.32;5.97;;;11.10;99.90;;;;;;5024711;28;20056;-76
2021/10/19 03:07:08;;;;;;;15.23;7.03;;;11.10;99.90;;;;;;5022390;28;20030;-76
2021/10/19 03:09:33;;;;;;;13.65;5.97;;;11.00;99.90;;;;;;5023503;28;20026;-75
2021/10/19 03:11:59;;;;;;;16.80;6.35;;;11.10;99.90;;;;;;5022586;28;20030;-75
2021/10/19 03:14:24;;;;;;;15.23;7.30;;;11.10;99.90;;;;;;5024446;28;20034;-76
2021/10/19 03:16:50;;;;;;;14.18;5.95;;;11.10;99.90;;;;;;5024840;28;20033;-77
2021/10/19 03:19:16;;;;;;;16.95;6.68;;;11.20;99.90;;;;;;5023977;28;20034;-76
2021/10/19 03:21:42;;;;;;;16.95;6.95;;;11.10;99.90;;;;;;5024409;28;20026;-75
2021/10/19 03:24:07;;;;;;;17.88;6.50;;;11.10;99.90;;;;;;5023936;28;20112;-74
2021/10/19 03:26:33;;;;;;;19.02;7.13;;;11.20;99.90;;;;;;5022371;28;20026;-74
2021/10/19 03:28:58;;;;;;;28.35;8.60;;;11.10;99.90;;;;;;5023976;28;20045;-76
2021/10/19 03:31:24;;;;;;;15.27;7.78;;;11.20;99.90;;;;;;5023567;28;20036;-76
2021/10/19 03:33:50;;;;;;;22.88;7.00;;;11.20;99.90;;;;;;5024062;28;20034;-76
2021/10/19 03:36:15;;;;;;;15.30;6.97;;;11.20;99.90;;;;;;5025623;28;20037;-76
2021/10/19 03:38:41;;;;;;;14.05;6.38;;;11.20;99.90;;;;;;5025798;28;20029;-75
2021/10/19 03:41:07;;;;;;;13.52;6.68;;;11.20;99.90;;;;;;5043551;28;20065;-75
2021/10/19 03:43:33;;;;;;;15.15;6.75;;;11.20;99.90;;;;;;5043478;28;20075;-76
2021/10/19 03:45:59;;;;;;;17.45;6.85;;;11.30;99.90;;;;;;5043731;28;20033;-74
2021/10/19 03:48:25;;;;;;;13.20;6.30;;;11.20;99.90;;;;;;5043980;28;20101;-78
2021/10/19 03:50:51;;;;;;;19.05;6.90;;;11.20;99.90;;;;;;5043483;28;20072;-77
2021/10/19 03:53:18;;;;;;;14.05;6.65;;;11.20;99.90;;;;;;5043612;28;20030;-77
2021/10/19 03:55:43;;;;;;;19.35;7.25;;;11.20;99.90;;;;;;5044375;28;20025;-75
2021/10/19 03:58:10;;;;;;;13.20;6.60;;;11.20;99.90;;;;;;5045591;28;20029;-74
2021/10/19 04:00:36;;;;;;;21.85;7.90;;;11.30;99.90;;;;;;5047304;28;20029;-75
2021/10/19 04:03:01;;;;;;;19.95;6.43;;;11.30;99.90;;;;;;5047798;28;20034;-75
2021/10/19 04:05:28;;;;;;;18.33;7.10;;;11.30;99.90;;;;;;5047599;28;20030;-75
2021/10/19 04:07:53;;;;;;;11.93;6.35;;;11.40;99.90;;;;;;5046953;28;20045;-74
2021/10/19 04:10:21;;;;;;;18.77;7.88;;;11.30;99.90;;;;;;5030053;28;20385;-76
2021/10/19 04:12:48;;;;;;;18.58;8.30;;;11.30;99.90;;;;;;5047645;28;20440;-75
2021/10/19 04:15:13;;;;;;;15.65;6.70;;;11.30;99.90;;;;;;5047455;28;20064;-75
2021/10/19 04:17:39;;;;;;;14.15;7.38;;;11.40;99.90;;;;;;5029771;28;20052;-74
2021/10/19 04:20:06;;;;;;;21.42;7.32;;;11.40;99.90;;;;;;5047021;28;20040;-74
2021/10/19 04:22:34;;;;;;;17.58;7.60;;;11.40;99.90;;;;;;5047088;28;20037;-75
2021/10/19 04:25:00;;;;;;;17.73;6.88;;;11.40;99.90;;;;;;5046822;28;20052;-74
2021/10/19 04:27:26;;;;;;;21.23;8.10;;;11.40;99.90;;;;;;5046971;28;20033;-75
2021/10/19 04:29:52;;;;;;;20.23;8.07;;;11.40;99.90;;;;;;5047005;28;20053;-75
2021/10/19 04:32:17;;;;;;;15.55;6.50;;;11.40;99.90;;;;;;5047560;28;20034;-76
2021/10/19 04:34:43;;;;;;;19.38;6.95;;;11.40;99.90;;;;;;5046938;28;20033;-75
2021/10/19 04:37:09;;;;;;;16.42;7.57;;;11.40;99.90;;;;;;5046276;28;20065;-75
2021/10/19 04:39:35;;;;;;;18.10;8.15;;;11.40;99.90;;;;;;5046958;28;20055;-76
2021/10/19 04:42:01;;;;;;;18.50;8.15;;;11.40;99.90;;;;;;5028476;28;20097;-75
2021/10/19 04:44:27;;;;;;;16.90;7.75;;;11.40;99.90;;;;;;5046785;28;20034;-76
2021/10/19 04:46:52;;;;;;;17.50;7.28;;;11.40;99.90;;;;;;5046306;28;20037;-77
2021/10/19 04:49:18;;;;;;;16.27;7.00;;;11.40;99.90;;;;;;5046700;28;20041;-75
2021/10/19 04:51:43;;;;;;;15.30;6.95;;;11.40;99.90;;;;;;5046919;28;20033;-74
2021/10/19 04:54:09;;;;;;;18.75;7.55;;;11.40;99.90;;;;;;5046841;28;20055;-75
2021/10/19 04:56:35;;;;;;;19.17;6.82;;;11.40;99.90;;;;;;5046041;28;20029;-74
2021/10/19 04:59:00;;;;;;;18.83;7.05;;;11.40;99.90;;;;;;5046666;28;20029;-74
2021/10/19 05:01:26;;;;;;;19.33;8.32;;;11.40;99.90;;;;;;5046865;28;20034;-75
2021/10/19 05:03:55;;;;;;;13.70;6.47;;;11.40;99.90;;;;;;5046403;28;20060;-75
2021/10/19 05:06:20;;;;;;;15.65;7.50;;;11.40;99.90;;;;;;5028760;28;20033;-76
2021/10/19 05:08:47;;;;;;;21.85;7.95;;;11.50;99.90;;;;;;5045009;28;20037;-76
2021/10/19 05:11:12;;;;;;;17.20;8.02;;;11.40;99.90;;;;;;5045974;28;20063;-75
2021/10/19 05:13:38;;;;;;;23.00;6.80;;;11.40;99.90;;;;;;5046092;28;20048;-76
2021/10/19 05:16:04;;;;;;;16.98;6.63;;;11.40;99.90;;;;;;5045256;28;20030;-76
2021/10/19 05:18:30;;;;;;;19.15;7.47;;;11.40;99.90;;;;;;5045991;28;20037;-75
2021/10/19 05:20:56;;;;;;;19.30;8.55;;;11.40;99.90;;;;;;5028448;28;20036;-76
2021/10/19 05:23:21;;;;;;;21.13;8.35;;;11.40;99.90;;;;;;5045725;28;20081;-75
2021/10/19 05:25:47;;;;;;;18.98;8.52;;;11.40;99.90;;;;;;5045505;28;20033;-76
2021/10/19 05:28:13;;;;;;;27.50;8.35;;;11.40;99.90;;;;;;5044424;28;20037;-75
2021/10/19 05:30:38;;;;;;;15.90;6.70;;;11.50;99.90;;;;;;5045318;28;20039;-75
2021/10/19 05:33:04;;;;;;;32.72;7.85;;;11.40;99.90;;;;;;5046073;28;20116;-75
2021/10/19 05:35:31;;;;;;;27.15;9.35;;;11.40;99.90;;;;;;5031331;28;20043;-74
2021/10/19 05:37:57;;;;;;;23.17;7.60;;;11.40;99.90;;;;;;5031842;28;20495;-75
2021/10/19 05:40:24;;;;;;;15.23;8.18;;;11.40;99.90;;;;;;5032122;28;20089;-75
2021/10/19 05:42:50;;;;;;;19.98;8.27;;;11.40;99.90;;;;;;5033415;28;20034;-76
2021/10/19 05:45:17;;;;;;;20.77;8.57;;;11.40;99.90;;;;;;5031723;28;20041;-75
2021/10/19 05:47:45;;;;;;;22.85;8.93;;;11.30;99.90;;;;;;5011156;28;20344;-74
2021/10/19 05:50:13;;;;;;;22.50;8.55;;;11.30;99.90;;;;;;5023513;28;20026;-75
2021/10/19 05:52:39;;;;;;;20.17;9.18;;;11.30;99.90;;;;;;5029676;28;20034;-75
2021/10/19 05:55:05;;;;;;;20.27;9.07;;;11.30;99.90;;;;;;5032930;28;20042;-75
2021/10/19 05:57:31;;;;;;;21.85;8.70;;;11.30;99.90;;;;;;5037674;28;20036;-74
2021/10/19 05:59:56;;;;;;;21.83;8.63;;;11.30;99.90;;;;;;5045184;28;20052;-75
2021/10/19 06:02:26;;;;;;;16.50;7.28;;;11.30;99.90;;;;;;5044180;28;20068;-74
2021/10/19 06:04:51;;;;;;;22.63;7.72;;;11.30;99.90;;;;;;5026457;28;20052;-75
2021/10/19 06:07:17;;;;;;;24.17;8.48;;;11.30;99.90;;;;;;5042601;28;20029;-76
2021/10/19 06:09:43;;;;;;;15.88;6.55;;;11.30;99.90;;;;;;5043856;28;20017;-74
2021/10/19 06:12:09;;;;;;;19.08;8.38;;;11.30;99.90;;;;;;5037356;28;20065;-75
2021/10/19 06:14:34;;;;;;;20.35;7.55;;;11.30;99.90;;;;;;5034635;28;20037;-74
2021/10/19 06:17:00;;;;;;;18.30;6.97;;;11.30;99.90;;;;;;5044704;28;20052;-75
2021/10/19 06:19:25;;;;;;;20.73;8.52;;;11.40;99.90;;;;;;5044756;28;20030;-75
2021/10/19 06:21:51;;;;;;;18.05;7.80;;;11.40;99.90;;;;;;5044353;28;20057;-74
2021/10/19 06:24:19;;;;;;;21.30;7.68;;;11.40;99.90;;;;;;5043160;28;20025;-76
2021/10/19 06:26:45;;;;;;;21.52;9.13;;;11.40;99.90;;;;;;5032244;28;20037;-74
2021/10/19 06:29:12;;;;;;;19.75;8.27;;;11.40;99.90;;;;;;5029052;28;20132;-75
2021/10/19 06:31:38;;;;;;;17.38;7.30;;;11.40;99.90;;;;;;5038077;28;20033;-74
2021/10/19 06:34:06;;;;;;;14.35;6.78;;;11.40;99.90;;;;;;5027785;28;20025;-74
2021/10/19 06:36:32;;;;;;;21.08;7.10;;;11.50;99.90;;;;;;5042868;28;20048;-74
2021/10/19 06:38:58;;;;;;;14.38;7.43;;;11.50;99.90;;;;;;5043316;28;20477;-74
2021/10/19 06:41:23;;;;;;;19.90;7.25;;;11.60;99.90;;;;;;5044590;28;20028;-75
2021/10/19 06:43:50;;;;;;;17.67;7.63;;;11.60;99.90;;;;;;5043590;28;20373;-74
2021/10/19 06:46:16;;;;;;;19.25;7.57;;;11.60;99.90;;;;;;5027003;28;20122;-74
2021/10/19 06:48:42;;;;;;;19.50;7.43;;;11.70;99.90;;;;;;5044273;28;20032;-75
2021/10/19 06:51:09;;;;;;;16.08;7.22;;;11.70;99.90;;;;;;5044356;28;20073;-75
2021/10/19 06:53:35;;;;;;;22.35;8.13;;;11.80;99.90;;;;;;5026918;28;20033;-74
2021/10/19 06:56:02;;;;;;;14.35;7.05;;;11.80;99.90;;;;;;5044243;28;20033;-75
2021/10/19 06:58:27;;;;;;;16.88;6.82;;;11.90;99.90;;;;;;5044418;28;20389;-75
2021/10/19 07:00:54;;;;;;;20.83;8.70;;;12.00;99.90;;;;;;5042598;28;20040;-74
2021/10/19 07:03:20;;;;;;;19.63;8.90;;;12.00;99.90;;;;;;5043878;28;20021;-75
2021/10/19 07:05:47;;;;;;;18.38;7.45;;;12.00;99.90;;;;;;5044296;28;20056;-74
2021/10/19 07:08:12;;;;;;;17.48;8.35;;;12.00;99.90;;;;;;5043925;28;20128;-73
2021/10/19 07:10:40;;;;;;;18.52;7.55;;;12.10;99.90;;;;;;5043680;28;20025;-74
2021/10/19 07:13:05;;;;;;;16.77;7.88;;;12.20;99.90;;;;;;5037674;28;20053;-73
2021/10/19 07:15:34;;;;;;;16.48;6.60;;;12.20;99.90;;;;;;5042192;28;20034;-74
2021/10/19 07:18:05;;;;;;;28.02;8.27;;;12.20;99.90;;;;;;5025008;28;20033;-74
2021/10/19 07:20:30;;;;;;;19.42;8.10;;;12.20;99.90;;;;;;5043899;28;20129;-73
2021/10/19 07:22:59;;;;;;;15.68;6.95;;;12.30;99.90;;;;;;5042850;28;20026;-73
2021/10/19 07:25:24;;;;;;;26.45;8.57;;;12.30;99.90;;;;;;5042964;28;20213;-74
2021/10/19 07:27:50;;;;;;;16.70;7.95;;;12.40;99.90;;;;;;5044000;28;20041;-73
2021/10/19 07:30:16;;;;;;;19.20;8.15;;;12.40;99.90;;;;;;5039470;28;20032;-75
2021/10/19 07:32:42;;;;;;;18.65;7.75;;;12.50;99.90;;;;;;5037206;28;20032;-73
2021/10/19 07:35:08;;;;;;;13.07;7.03;;;12.50;99.90;;;;;;5035527;28;20026;-73
2021/10/19 07:37:42;;;;;;;15.52;7.50;;;12.60;99.90;;;;;;5042952;28;20076;-73
2021/10/19 07:40:09;;;;;;;16.75;8.07;;;12.60;99.90;;;;;;5030503;28;20861;-73
2021/10/19 07:42:40;;;;;;;18.30;7.93;;;12.70;99.90;;;;;;5029943;28;20056;-73
2021/10/19 07:45:08;;;;;;;19.05;7.65;;;12.70;99.90;;;;;;5047642;28;20025;-73
2021/10/19 07:47:38;;;;;;;18.05;7.93;;;12.70;99.90;;;;;;5037446;28;20050;-73
2021/10/19 07:50:07;;;;;;;12.32;6.03;;;12.80;99.90;;;;;;5037012;28;20018;-73
2021/10/19 07:52:33;;;;;;;16.20;6.85;;;12.80;99.90;;;;;;5039251;28;20025;-73
2021/10/19 07:55:03;;;;;;;13.77;6.85;;;12.80;99.90;;;;;;5035365;28;20040;-74
2021/10/19 07:57:28;;;;;;;17.67;7.32;;;12.90;99.90;;;;;;5032926;28;20060;-74
2021/10/19 07:59:54;;;;;;;18.88;6.60;;;13.00;99.90;;;;;;5030315;28;20030;-74
2021/10/19 08:02:20;;;;;;;28.02;7.15;;;12.90;99.90;;;;;;5029061;28;20121;-74
2021/10/19 08:04:45;;;;;;;17.77;6.90;;;12.90;99.90;;;;;;5047192;28;20037;-73
2021/10/19 08:07:11;;;;;;;15.60;7.78;;;13.00;99.90;;;;;;5028993;28;20030;-74
2021/10/19 08:09:37;;;;;;;12.57;6.70;;;13.00;99.90;;;;;;5037227;28;20034;-73
2021/10/19 08:12:02;;;;;;;19.65;7.63;;;13.10;99.90;;;;;;5034720;28;20068;-73
2021/10/19 08:14:28;;;;;;;13.02;6.63;;;13.10;99.90;;;;;;5045872;28;20030;-73
2021/10/19 08:16:57;;;;;;;26.25;6.43;;;13.10;99.90;;;;;;5046916;28;20034;-76
2021/10/19 08:19:22;;;;;;;14.40;6.35;;;13.20;99.90;;;;;;5032889;28;20044;-74
2021/10/19 08:21:48;;;;;;;15.93;7.53;;;13.20;99.90;;;;;;5032880;28;20025;-73
2021/10/19 08:24:13;;;;;;;16.17;6.93;;;13.20;99.90;;;;;;5033805;28;20080;-73
2021/10/19 08:26:39;;;;;;;20.08;7.03;;;13.30;99.90;;;;;;5036498;28;20022;-74
2021/10/19 08:29:04;;;;;;;14.82;6.93;;;13.30;99.90;;;;;;5040441;28;20049;-74
2021/10/19 08:31:31;;;;;;;11.10;5.78;;;13.40;99.90;;;;;;5031868;28;20085;-73
2021/10/19 08:33:58;;;;;;;14.40;6.63;;;13.40;99.90;;;;;;5044995;28;20036;-74
2021/10/19 08:36:25;;;;;;;15.55;7.32;;;13.40;99.90;;;;;;5029704;28;20030;-74
2021/10/19 08:38:51;;;;;;;16.02;7.05;;;13.40;99.90;;;;;;5035564;28;20038;-74
2021/10/19 08:41:22;;;;;;;21.52;7.25;;;13.40;99.90;;;;;;5025010;28;20049;-74
2021/10/19 08:43:49;;;;;;;17.50;6.75;;;13.50;99.90;;;;;;5034985;28;20939;-75
2021/10/19 08:46:35;;;;;;;16.88;6.13;;;13.70;99.90;;;;;;5027394;28;20037;-74
2021/10/19 08:49:01;;;;;;;19.67;6.20;;;13.60;99.90;;;;;;5046740;28;20038;-73
2021/10/19 08:51:26;;;;;;;17.70;7.05;;;13.60;99.90;;;;;;5023634;28;20018;-74
2021/10/19 08:53:52;;;;;;;15.48;6.93;;;13.70;99.90;;;;;;5032962;28;20017;-74
2021/10/19 08:56:18;;;;;;;13.32;6.00;;;13.70;99.90;;;;;;5046695;28;20052;-74
2021/10/19 08:58:44;;;;;;;17.83;6.88;;;13.70;99.90;;;;;;5046499;28;20017;-73
2021/10/19 09:01:10;;;;;;;12.73;5.68;;;13.80;99.90;;;;;;5046470;28;20089;-72
2021/10/19 09:03:50;;;;;;;14.32;6.53;;;13.80;99.90;;;;;;5028606;28;20057;-73
2021/10/19 09:06:17;;;;;;;12.93;6.68;;;13.80;99.90;;;;;;5045421;28;20036;-73
2021/10/19 09:08:48;;;;;;;11.80;5.78;;;13.90;99.90;;;;;;5033835;28;20139;-73
2021/10/19 09:11:15;;;;;;;18.63;7.15;;;14.00;99.90;;;;;;5045738;28;20041;-74
2021/10/19 09:13:55;;;;;;;13.35;5.80;;;14.00;99.90;;;;;;5045472;28;20044;-73
2021/10/19 09:16:56;;;;;;;20.42;7.53;;;14.00;99.90;;;;;;5046558;28;20071;-74
2021/10/19 09:19:23;;;;;;;16.15;5.85;;;14.10;99.90;;;;;;4983983;28;20022;-74
2021/10/19 09:22:02;;;;;;;20.52;7.60;;;14.10;99.90;;;;;;5026733;28;20100;-74
2021/10/19 09:24:32;;;;;;;18.95;5.88;;;14.20;99.90;;;;;;5044827;28;20512;-71
2021/10/19 09:27:07;;;;;;;18.50;7.43;;;14.20;99.90;;;;;;5045988;28;20029;-72
2021/10/19 09:29:36;;;;;;;13.38;6.13;;;14.30;99.90;;;;;;5046204;28;20060;-74
2021/10/19 09:32:05;;;;;;;14.15;6.88;;;14.30;99.90;;;;;;5046659;28;20100;-73
2021/10/19 09:34:33;;;;;;;16.30;6.68;;;14.40;99.90;;;;;;5026527;28;20109;-74
2021/10/19 09:36:59;;;;;;;16.65;6.90;;;14.40;99.90;;;;;;5043061;28;20053;-72
2021/10/19 09:39:40;;;;;;;12.00;6.13;;;14.40;99.90;;;;;;5044824;28;20474;-75
2021/10/19 09:42:17;;;;;;;19.17;7.35;;;14.40;99.90;;;;;;5044810;28;20049;-74
2021/10/19 09:44:57;;;;;;;11.27;5.43;;;14.40;99.90;;;;;;5044361;28;20033;-75
2021/10/19 09:47:25;;;;;;;11.10;6.25;;;14.50;99.90;;;;;;5034119;28;20022;-75
2021/10/19 09:49:55;;;;;;;12.95;7.18;;;14.50;99.90;;;;;;5025696;28;20109;-75
2021/10/19 09:52:24;;;;;;;13.27;5.93;;;14.60;99.90;;;;;;5033652;28;20064;-73
2021/10/19 09:54:56;;;;;;;17.17;6.72;;;14.60;99.90;;;;;;5045147;28;20060;-75
2021/10/19 09:57:26;;;;;;;16.83;6.78;;;14.60;99.90;;;;;;5045477;28;20052;-73
2021/10/19 09:59:52;;;;;;;15.93;6.40;;;14.60;99.90;;;;;;5045482;28;20026;-74
2021/10/19 10:02:18;;;;;;;18.45;7.15;;;14.60;99.90;;;;;;5026898;28;20017;-75
2021/10/19 10:04:45;;;;;;;14.48;7.20;;;14.60;99.90;;;;;;5045373;28;20028;-74
2021/10/19 10:07:12;;;;;;;17.67;6.55;;;14.60;99.90;;;;;;5044934;28;20053;-73
2021/10/19 10:09:38;;;;;;;15.43;7.80;;;14.60;99.90;;;;;;5026634;28;20466;-74
2021/10/19 10:12:08;;;;;;;14.02;6.75;;;14.70;99.90;;;;;;5026518;28;20025;-74
2021/10/19 10:14:51;;;;;;;14.73;6.38;;;14.70;99.90;;;;;;5027146;28;20093;-74
2021/10/19 10:17:17;;;;;;;15.23;6.78;;;14.70;99.90;;;;;;5026692;28;20736;-73
2021/10/19 10:19:43;;;;;;;18.77;7.88;;;14.80;99.90;;;;;;5045127;28;20063;-74
2021/10/19 10:22:28;;;;;;;21.02;7.47;;;14.80;99.90;;;;;;5044996;28;20073;-74
2021/10/19 10:25:10;;;;;;;17.42;7.68;;;14.70;99.90;;;;;;5044572;28;20021;-74
2021/10/19 10:27:37;;;;;;;15.18;6.68;;;14.70;99.90;;;;;;5044035;28;20049;-75
2021/10/19 10:30:05;;;;;;;11.43;6.40;;;14.70;99.90;;;;;;5026738;28;20033;-72
2021/10/19 10:32:36;;;;;;;17.35;7.60;;;14.70;99.90;;;;;;5042399;28;20025;-72
2021/10/19 10:35:14;;;;;;;15.25;7.68;;;14.70;99.90;;;;;;5043339;28;20378;-73
2021/10/19 10:37:57;;;;;;;16.58;8.25;;;14.70;99.90;;;;;;5042718;28;20584;-73
2021/10/19 10:40:30;;;;;;;13.82;7.60;;;14.70;99.90;;;;;;5044137;28;20056;-75
2021/10/19 10:42:58;;;;;;;15.93;7.75;;;14.70;99.90;;;;;;5027241;28;20025;-74
2021/10/19 10:45:32;;;;;;;14.18;7.32;;;14.60;99.90;;;;;;5042919;28;20025;-73
2021/10/19 10:48:06;;;;;;;17.73;7.68;;;14.60;99.90;;;;;;5044208;28;20037;-73
2021/10/19 10:50:33;;;;;;;18.35;7.75;;;14.60;99.90;;;;;;5044596;28;20030;-73
2021/10/19 10:53:10;;;;;;;15.95;7.63;;;14.60;99.90;;;;;;5043376;28;20029;-73
2021/10/19 10:55:41;;;;;;;13.38;7.07;;;14.60;99.90;;;;;;5043983;28;20029;-73
2021/10/19 10:58:07;;;;;;;13.30;7.97;;;14.60;99.90;;;;;;5025559;28;20029;-72
2021/10/19 11:00:33;;;;;;;15.38;6.97;;;14.50;99.90;;;;;;5042396;28;20029;-74
2021/10/19 11:03:14;;;;;;;18.08;8.18;;;14.50;99.90;;;;;;5044137;28;20079;-73
2021/10/19 11:06:14;;;;;;;18.25;7.30;;;14.50;99.90;;;;;;5024649;28;20088;-72
2021/10/19 11:08:39;;;;;;;17.52;8.82;;;14.50;99.90;;;;;;5020816;28;20144;-74
2021/10/19 11:11:15;;;;;;;19.77;8.55;;;14.40;99.90;;;;;;5044646;28;20382;-72
2021/10/19 11:13:49;;;;;;;19.75;8.35;;;14.40;99.90;;;;;;5043272;28;20085;-71
2021/10/19 11:16:16;;;;;;;14.37;7.63;;;14.30;99.90;;;;;;5044275;28;20037;-72
2021/10/19 11:18:42;;;;;;;18.55;7.95;;;14.40;99.90;;;;;;5042411;28;20045;-73
2021/10/19 11:21:08;;;;;;;17.20;8.43;;;14.30;99.90;;;;;;5043144;28;20025;-73
2021/10/19 11:23:41;;;;;;;21.00;8.80;;;14.30;99.90;;;;;;5043766;28;20106;-72
2021/10/19 11:26:09;;;;;;;15.52;7.75;;;14.30;99.90;;;;;;5026630;28;20044;-72
2021/10/19 11:28:36;;;;;;;19.13;7.18;;;14.30;99.90;;;;;;5043868;28;20098;-72
2021/10/19 11:31:04;;;;;;;16.10;7.85;;;14.30;99.90;;;;;;5044413;28;20036;-73
2021/10/19 11:33:38;;;;;;;23.33;7.18;;;14.40;99.90;;;;;;5044331;28;20064;-72
2021/10/19 11:36:05;;;;;;;15.48;8.30;;;14.30;99.90;;;;;;5025882;28;20025;-72
2021/10/19 11:38:32;;;;;;;21.92;8.70;;;14.30;99.90;;;;;;5043886;28;20784;-72
2021/10/19 11:41:15;;;;;;;17.65;8.43;;;14.30;99.90;;;;;;5044515;28;20021;-73
2021/10/19 11:43:42;;;;;;;15.52;8.18;;;14.30;99.90;;;;;;5043442;28;20029;-72
2021/10/19 11:46:09;;;;;;;19.05;9.43;;;14.40;99.90;;;;;;5026244;28;20093;-72
2021/10/19 11:48:37;;;;;;;19.58;9.00;;;14.30;99.90;;;;;;5043921;28;20454;-73
2021/10/19 11:51:07;;;;;;;20.63;9.10;;;14.40;99.90;;;;;;5025768;28;20048;-72
2021/10/19 11:53:34;;;;;;;28.73;10.13;;;14.40;99.90;;;;;;5044145;28;20037;-73
2021/10/19 11:56:01;;;;;;;20.55;7.90;;;14.30;99.90;;;;;;5043481;28;20025;-73
2021/10/19 11:58:27;;;;;;;25.58;11.65;;;14.30;99.90;;;;;;5043606;28;20030;-72
2021/10/19 12:00:53;;;;;;;19.42;9.05;;;14.40;99.90;;;;;;5043154;28;20031;-74
2021/10/19 12:03:18;;;;;;;26.77;10.60;;;14.30;99.90;;;;;;5043719;28;20022;-73
2021/10/19 12:05:45;;;;;;;22.48;9.82;;;14.30;99.90;;;;;;5043564;28;20041;-75
2021/10/19 12:08:11;;;;;;;18.42;9.73;;;14.30;99.90;;;;;;5043522;28;20045;-73
2021/10/19 12:10:37;;;;;;;21.52;10.15;;;14.30;99.90;;;;;;5043350;28;20095;-73
2021/10/19 12:13:05;;;;;;;26.45;10.48;;;14.30;99.90;;;;;;5043468;28;20021;-73
2021/10/19 12:15:33;;;;;;;19.40;9.35;;;14.30;99.90;;;;;;5043023;28;20064;-71
2021/10/19 12:18:15;;;;;;;18.30;10.00;;;14.40;99.90;;;;;;5044636;28;20607;-72
2021/10/19 12:20:41;;;;;;;17.27;9.00;;;14.40;99.90;;;;;;5047546;28;20025;-73
2021/10/19 12:23:09;;;;;;;20.25;8.85;;;14.30;99.90;;;;;;5047336;28;20033;-72
2021/10/19 12:25:42;;;;;;;19.55;8.10;;;14.40;99.90;;;;;;5046726;28;20065;-71
2021/10/19 12:28:14;;;;;;;20.67;10.07;;;14.40;99.90;;;;;;5046925;28;20046;-74
2021/10/19 12:30:41;;;;;;;21.23;9.80;;;14.30;99.90;;;;;;5047047;28;20034;-73
2021/10/19 12:33:16;;;;;;;26.35;9.40;;;14.40;99.90;;;;;;5047227;28;20036;-72
2021/10/19 12:35:54;;;;;;;21.40;9.95;;;14.40;99.90;;;;;;5029247;28;20029;-73
2021/10/19 12:38:25;;;;;;;27.20;10.43;;;14.40;99.90;;;;;;5029042;28;20107;-72